Hauptseite
METAR-TAF:

METAR-TAF

Flughäfen :

City-Airport Mannheim

Mannheim, Deutschland

Breite: 49-28-21N, Länge: 008-30-56E, Höhe: 100 m

Beobachtung

Neuester Wetterbericht von vor 2 Stunden und 20 Minuten, um 18:50 UTC
Wind 6 kt aus Süd/Südost
Temperatur 14°C
Luftfeuchtigkeit 72%
Luftdruck 1015 hPa
Sichtweite 10 km oder mehr
Geschlossene Wolkendecke in der Höhe von 4200 ft

METAR: EDFM 241850Z 15006KT 9999 OVC042 14/09 Q1015

Zeit: 23:10 (21:10 UTC)


TAF: fehlend

Wetterbeobachtungen und Prognosen von mehr als 4000 Flughäfen (METAR und TAF Bericht).

Die verfügbaren Stationen werden durch gelbe und rote Markierungen auf der Karte dargestellt.

Führen Sie die Maus auf sie, um den Namen der Station zu sehen.

Darauf klicken, um die Beobachtung von Wetterbeobachtungen und Prognosen zu sehen.

Um die Karte zu ändern : klicken Sie auf den grünen Tasten mit einem schwarzen Kreuz Zum Vergrößern, auf den grünen Button mit einem Gedankenstrich zu verkleinern, oder auf die grünen Pfeile für benachbarte Karten.


METAR-TAF: